createdAt,value
2023-07-22T00:00:30.570Z,153.56
2023-07-22T00:01:30.721Z,148.67
2023-07-22T00:02:30.804Z,152.34
2023-07-22T00:03:30.895Z,153.11
2023-07-22T00:04:30.999Z,151.33
2023-07-22T00:05:31.134Z,144.66
2023-07-22T00:06:31.278Z,142.93
2023-07-22T00:07:31.408Z,146.48
2023-07-22T00:08:31.549Z,142.66
2023-07-22T00:09:31.681Z,142.85
2023-07-22T00:10:31.828Z,143.42
2023-07-22T00:11:31.917Z,146.87
2023-07-22T00:12:32.176Z,150.35
2023-07-22T00:13:32.885Z,149.72
2023-07-22T00:14:32.401Z,154.86
2023-07-22T00:15:32.487Z,154.98
2023-07-22T00:16:32.692Z,155.30
2023-07-22T00:17:32.729Z,155.51
2023-07-22T00:18:32.845Z,157.80
2023-07-22T00:19:32.929Z,161.68
2023-07-22T00:20:33.030Z,161.73
2023-07-22T00:21:33.140Z,158.66
2023-07-22T00:22:33.265Z,156.91
2023-07-22T00:23:33.433Z,155.19
2023-07-22T00:24:33.583Z,156.31
2023-07-22T00:25:33.667Z,154.38
2023-07-22T00:26:33.823Z,152.22
2023-07-22T00:27:33.949Z,152.22
2023-07-22T00:28:34.034Z,152.87
2023-07-22T00:29:34.172Z,153.90
2023-07-22T00:30:34.286Z,156.26
2023-07-22T00:31:34.407Z,162.63
2023-07-22T00:32:34.596Z,166.93
2023-07-22T00:33:34.733Z,168.01
2023-07-22T00:34:34.764Z,169.45
2023-07-22T00:35:34.903Z,170.80
2023-07-22T00:36:34.976Z,168.45
2023-07-22T00:37:35.136Z,166.81
2023-07-22T00:38:35.267Z,166.79
2023-07-22T00:39:35.499Z,165.98
2023-07-22T00:40:35.598Z,167.00
2023-07-22T00:41:35.723Z,167.09
2023-07-22T00:42:35.791Z,167.75
2023-07-22T00:43:35.917Z,170.35
2023-07-22T00:44:36.031Z,174.22
2023-07-22T00:45:36.137Z,177.60
2023-07-22T00:46:36.345Z,172.17
2023-07-22T00:47:36.410Z,167.81
2023-07-22T00:48:36.482Z,165.55
2023-07-22T00:49:36.559Z,166.04
2023-07-22T00:50:36.744Z,169.17
2023-07-22T00:51:36.898Z,171.54
2023-07-22T00:52:37.038Z,173.74
2023-07-22T00:53:37.182Z,175.40
2023-07-22T00:54:37.328Z,175.55
2023-07-22T00:55:37.467Z,176.60
2023-07-22T00:56:37.632Z,177.61
2023-07-22T00:57:37.797Z,178.21
2023-07-22T00:58:37.972Z,178.53
2023-07-22T00:59:38.174Z,178.86
2023-07-22T01:00:38.370Z,178.86
2023-07-22T01:01:38.484Z,178.31
2023-07-22T01:02:38.706Z,177.02
2023-07-22T01:03:38.744Z,177.41
2023-07-22T01:04:38.934Z,175.66
2023-07-22T01:05:39.152Z,172.76
2023-07-22T01:06:39.279Z,171.09
2023-07-22T01:07:39.446Z,172.36
2023-07-22T01:08:39.592Z,173.47
2023-07-22T01:09:39.760Z,175.73
2023-07-22T01:10:39.902Z,177.14
2023-07-22T01:11:40.036Z,178.57
2023-07-22T01:12:40.213Z,180.34
2023-07-22T01:13:40.420Z,182.52
2023-07-22T01:14:40.592Z,182.89
2023-07-22T01:15:40.760Z,183.92
2023-07-22T01:16:40.962Z,183.81
2023-07-22T01:17:41.126Z,184.33
2023-07-22T01:18:41.242Z,185.91
2023-07-22T01:19:41.382Z,185.44
2023-07-22T01:20:41.526Z,186.60
2023-07-22T01:21:41.652Z,184.39
2023-07-22T01:22:41.762Z,183.42
2023-07-22T01:23:41.904Z,181.85
2023-07-22T01:24:42.034Z,181.50
2023-07-22T01:25:42.175Z,182.26
2023-07-22T01:26:42.347Z,181.41
2023-07-22T01:27:42.417Z,180.55
2023-07-22T01:28:42.503Z,180.49
2023-07-22T01:29:42.621Z,179.54
2023-07-22T01:30:42.796Z,177.46
2023-07-22T01:31:42.866Z,173.00
2023-07-22T01:32:43.030Z,168.75
2023-07-22T01:33:43.077Z,167.14
2023-07-22T01:34:43.273Z,168.03
2023-07-22T01:35:43.496Z,170.24
2023-07-22T01:36:43.622Z,174.34
2023-07-22T01:37:43.771Z,175.67
2023-07-22T01:38:43.872Z,175.69
2023-07-22T01:39:44.018Z,175.83
2023-07-22T01:40:44.160Z,177.25
2023-07-22T01:41:44.224Z,179.53
2023-07-22T01:42:44.336Z,181.40
2023-07-22T01:43:44.511Z,179.73
2023-07-22T01:44:44.580Z,179.78
2023-07-22T01:45:44.705Z,179.89
2023-07-22T01:46:44.830Z,178.84
2023-07-22T01:47:44.998Z,177.33
2023-07-22T01:48:45.117Z,178.06
2023-07-22T01:49:45.283Z,178.30
2023-07-22T01:50:45.429Z,178.14
2023-07-22T01:51:45.631Z,178.39
2023-07-22T01:52:45.810Z,177.52
2023-07-22T01:53:45.974Z,175.94
2023-07-22T01:54:46.148Z,174.28
2023-07-22T01:55:46.291Z,172.88
2023-07-22T01:56:46.502Z,172.31
2023-07-22T01:57:46.613Z,172.15
2023-07-22T01:58:46.782Z,170.06
2023-07-22T01:59:46.939Z,168.33
2023-07-22T02:00:47.077Z,168.34
2023-07-22T02:01:47.231Z,167.61
2023-07-22T02:02:47.382Z,167.04
2023-07-22T02:03:47.495Z,167.51
2023-07-22T02:04:47.533Z,166.75
2023-07-22T02:05:47.649Z,167.76
2023-07-22T02:06:47.751Z,167.62
2023-07-22T02:07:47.882Z,167.85
2023-07-22T02:08:47.993Z,167.59
2023-07-22T02:09:48.114Z,167.49
2023-07-22T02:10:48.221Z,165.70
2023-07-22T02:11:48.361Z,165.94
2023-07-22T02:12:48.502Z,165.30
2023-07-22T02:13:48.605Z,164.47
2023-07-22T02:14:48.721Z,162.99
2023-07-22T02:15:48.874Z,160.83
2023-07-22T02:16:49.088Z,157.04
2023-07-22T02:17:49.194Z,158.16
2023-07-22T02:18:49.322Z,157.09
2023-07-22T02:19:49.540Z,157.56
2023-07-22T02:20:49.740Z,155.90
2023-07-22T02:21:49.929Z,155.70
2023-07-22T02:22:50.049Z,156.41
2023-07-22T02:23:50.228Z,158.11
2023-07-22T02:24:50.418Z,158.59
2023-07-22T02:25:50.555Z,156.22
2023-07-22T02:26:50.702Z,156.04
2023-07-22T02:27:50.912Z,154.94
2023-07-22T02:28:51.026Z,154.02
2023-07-22T02:29:51.184Z,153.46
2023-07-22T02:30:51.328Z,153.34
2023-07-22T02:31:51.488Z,153.18
2023-07-22T02:32:51.664Z,154.06
2023-07-22T02:33:51.739Z,155.73
2023-07-22T02:34:51.865Z,153.53
2023-07-22T02:35:52.020Z,153.81
2023-07-22T02:36:52.158Z,154.69
2023-07-22T02:37:52.276Z,155.71
2023-07-22T02:38:52.435Z,157.35
2023-07-22T02:39:52.566Z,160.12
2023-07-22T02:40:52.686Z,162.43
2023-07-22T02:41:52.873Z,164.43
2023-07-22T02:42:52.980Z,165.25
2023-07-22T02:43:53.123Z,168.57
2023-07-22T02:44:53.272Z,170.61
2023-07-22T02:45:53.464Z,170.15
2023-07-22T02:46:53.686Z,168.61
2023-07-22T02:47:53.761Z,167.18
2023-07-22T02:48:53.955Z,166.85
2023-07-22T02:49:54.110Z,168.89
2023-07-22T02:50:54.269Z,169.57
2023-07-22T02:51:54.374Z,169.58
2023-07-22T02:52:54.502Z,169.58
2023-07-22T02:53:54.581Z,169.92
2023-07-22T02:54:54.700Z,171.47
2023-07-22T02:55:54.807Z,174.33
2023-07-22T02:56:54.909Z,175.73
2023-07-22T02:57:55.001Z,176.97
2023-07-22T02:58:55.094Z,179.70
2023-07-22T02:59:55.230Z,179.19
2023-07-22T03:00:55.400Z,176.54
2023-07-22T03:01:55.545Z,174.05
2023-07-22T03:02:55.741Z,172.41
2023-07-22T03:03:55.903Z,172.66
2023-07-22T03:04:56.140Z,177.77
2023-07-22T03:05:56.225Z,182.48
2023-07-22T03:06:56.374Z,186.72
2023-07-22T03:07:56.513Z,186.21
2023-07-22T03:08:56.610Z,183.60
2023-07-22T03:09:56.815Z,181.59
2023-07-22T03:10:56.948Z,181.58
2023-07-22T03:11:57.481Z,183.00
2023-07-22T03:12:57.287Z,185.28
2023-07-22T03:13:57.395Z,186.04
2023-07-22T03:14:57.594Z,186.74
2023-07-22T03:15:57.783Z,187.49
2023-07-22T03:16:57.862Z,188.80
2023-07-22T03:17:58.054Z,188.76
2023-07-22T03:18:58.103Z,189.27
2023-07-22T03:19:58.287Z,190.07
2023-07-22T03:20:58.419Z,190.85
2023-07-22T03:21:58.646Z,192.22
2023-07-22T03:22:58.761Z,193.16
2023-07-22T03:23:59.476Z,193.13
2023-07-22T03:24:59.034Z,193.34
2023-07-22T03:25:59.203Z,193.27
2023-07-22T03:26:59.329Z,193.57
2023-07-22T03:27:59.500Z,193.11
2023-07-22T03:28:59.647Z,193.65
2023-07-22T03:29:59.793Z,194.89
2023-07-22T03:31:00.160Z,195.43
2023-07-22T03:32:00.064Z,196.26
2023-07-22T03:33:00.232Z,197.81
2023-07-22T03:34:00.379Z,200.32
2023-07-22T03:35:00.520Z,200.46
2023-07-22T03:36:00.621Z,201.26
2023-07-22T03:37:00.695Z,202.98
2023-07-22T03:38:00.812Z,204.18
2023-07-22T03:39:00.928Z,205.18
2023-07-22T03:40:01.012Z,206.51
2023-07-22T03:41:01.176Z,207.36
2023-07-22T03:42:01.249Z,208.05
2023-07-22T03:43:01.344Z,207.26
2023-07-22T03:44:01.516Z,205.78
2023-07-22T03:45:01.721Z,206.33
2023-07-22T03:46:01.903Z,206.70
2023-07-22T03:47:02.067Z,205.07
2023-07-22T03:48:02.246Z,200.93
2023-07-22T03:49:02.337Z,198.29
2023-07-22T03:50:02.534Z,197.09
2023-07-22T03:51:18.954Z,197.25
2023-07-22T03:52:03.780Z,197.30
2023-07-22T03:53:02.892Z,197.56
2023-07-22T03:54:02.999Z,198.35
2023-07-22T03:55:03.103Z,199.90
2023-07-22T03:56:03.255Z,201.97
2023-07-22T03:57:03.344Z,202.08
2023-07-22T03:58:03.443Z,200.51
2023-07-22T03:59:03.565Z,199.66
2023-07-22T04:00:03.660Z,194.91
2023-07-22T04:01:03.865Z,192.58
2023-07-22T04:02:03.974Z,190.13
2023-07-22T04:03:04.250Z,190.29
2023-07-22T04:04:04.343Z,192.30
2023-07-22T04:05:04.441Z,193.46
2023-07-22T04:06:04.552Z,196.52
2023-07-22T04:07:04.792Z,197.04
2023-07-22T04:08:04.866Z,196.43
2023-07-22T04:09:05.073Z,193.37
2023-07-22T04:10:05.178Z,191.68
2023-07-22T04:11:05.373Z,188.96
2023-07-22T04:12:05.556Z,185.25
2023-07-22T04:13:05.657Z,180.40
2023-07-22T04:14:05.850Z,179.23
2023-07-22T04:15:05.998Z,179.61
2023-07-22T04:16:06.142Z,179.58
2023-07-22T04:17:06.342Z,179.35
2023-07-22T04:18:06.487Z,178.50
2023-07-22T04:19:06.619Z,176.48
2023-07-22T04:20:06.804Z,175.42
2023-07-22T04:21:06.977Z,177.18
2023-07-22T04:22:07.168Z,177.01
2023-07-22T04:23:07.280Z,178.67
2023-07-22T04:24:07.497Z,176.35
2023-07-22T04:25:07.627Z,174.76
2023-07-22T04:26:07.725Z,173.46
2023-07-22T04:27:07.756Z,173.79
2023-07-22T04:28:08.002Z,174.93
2023-07-22T04:29:07.974Z,176.16
2023-07-22T04:30:08.053Z,178.38
2023-07-22T04:31:08.171Z,181.33
2023-07-22T04:32:08.287Z,180.94
2023-07-22T04:33:08.404Z,180.35
2023-07-22T04:34:08.462Z,179.65
2023-07-22T04:35:08.820Z,179.30
2023-07-22T04:36:08.783Z,178.44
2023-07-22T04:37:08.935Z,179.15
2023-07-22T04:38:09.043Z,180.08
2023-07-22T04:39:09.213Z,181.32
2023-07-22T04:40:09.362Z,183.01
2023-07-22T04:41:09.533Z,183.37
2023-07-22T04:42:09.669Z,183.62
2023-07-22T04:43:09.863Z,183.94
2023-07-22T04:44:10.003Z,183.90
2023-07-22T04:45:10.166Z,185.12
2023-07-22T04:46:10.357Z,186.26
2023-07-22T04:47:10.527Z,187.54
2023-07-22T04:48:10.559Z,189.40
2023-07-22T04:49:10.702Z,190.69
2023-07-22T04:50:10.802Z,192.12
2023-07-22T04:51:10.924Z,194.21
2023-07-22T04:52:11.016Z,195.76
2023-07-22T04:53:11.118Z,197.19
2023-07-22T04:54:11.242Z,195.08
2023-07-22T04:55:11.356Z,194.72
2023-07-22T04:56:11.496Z,195.16
2023-07-22T04:57:11.626Z,194.30
2023-07-22T04:58:11.789Z,194.19
2023-07-22T04:59:11.901Z,196.02
2023-07-22T05:00:11.976Z,194.38
2023-07-22T05:01:12.155Z,195.62
2023-07-22T05:02:12.215Z,195.07
2023-07-22T05:03:12.565Z,194.96
2023-07-22T05:04:12.564Z,193.34
2023-07-22T05:05:12.737Z,192.45
2023-07-22T05:06:12.890Z,191.64
2023-07-22T05:07:13.041Z,189.53
2023-07-22T05:08:13.197Z,188.89
2023-07-22T05:09:13.327Z,189.37
2023-07-22T05:10:13.695Z,191.07
2023-07-22T05:11:13.598Z,193.61
2023-07-22T05:12:13.736Z,191.25
2023-07-22T05:13:14.056Z,191.15
2023-07-22T05:14:14.003Z,192.26
2023-07-22T05:15:14.113Z,192.94
2023-07-22T05:16:14.311Z,192.70
2023-07-22T05:17:14.450Z,193.51
2023-07-22T05:18:14.532Z,195.67
2023-07-22T05:19:14.640Z,196.84
2023-07-22T05:20:14.749Z,197.94
2023-07-22T05:21:14.884Z,197.90
2023-07-22T05:22:15.016Z,199.71
2023-07-22T05:23:15.164Z,200.20
2023-07-22T05:24:15.322Z,200.83
2023-07-22T05:25:15.488Z,199.98
2023-07-22T05:26:15.600Z,198.69
2023-07-22T05:27:15.677Z,195.70
2023-07-22T05:28:15.811Z,190.92
2023-07-22T05:29:15.947Z,183.55
2023-07-22T05:30:32.659Z,177.81
2023-07-22T05:31:17.197Z,174.67
2023-07-22T05:32:32.464Z,173.70
2023-07-22T05:33:17.418Z,174.97
2023-07-22T05:34:16.468Z,176.58
2023-07-22T05:35:16.611Z,173.40
2023-07-22T05:36:16.650Z,173.46
2023-07-22T05:37:16.764Z,172.98
2023-07-22T05:38:16.882Z,171.46
2023-07-22T05:39:16.984Z,171.39
2023-07-22T05:40:17.025Z,170.07
2023-07-22T05:41:17.157Z,169.97
2023-07-22T05:42:17.198Z,172.63
2023-07-22T05:43:17.298Z,171.77
2023-07-22T05:44:17.344Z,169.61
2023-07-22T05:45:17.605Z,173.09
2023-07-22T05:46:17.596Z,175.59
2023-07-22T05:47:19.286Z,177.01
2023-07-22T05:48:17.632Z,177.38
2023-07-22T05:49:17.688Z,177.73
2023-07-22T05:50:17.734Z,177.06
2023-07-22T05:51:17.799Z,177.15
2023-07-22T05:52:17.884Z,175.75
2023-07-22T05:53:17.953Z,173.64
2023-07-22T05:54:18.041Z,173.58
2023-07-22T05:55:18.091Z,173.55
2023-07-22T05:56:18.167Z,168.64
2023-07-22T05:57:18.247Z,169.19
2023-07-22T05:58:18.356Z,167.39
2023-07-22T05:59:22.156Z,168.72
2023-07-22T06:00:18.480Z,164.76
2023-07-22T06:01:18.661Z,152.83
2023-07-22T06:02:18.593Z,152.34
2023-07-22T06:03:18.693Z,158.63
2023-07-22T06:04:18.789Z,151.97
2023-07-22T06:05:18.809Z,151.82
2023-07-22T06:06:19.487Z,155.29
2023-07-22T06:07:18.928Z,162.88
2023-07-22T06:08:18.986Z,166.27
2023-07-22T06:09:19.153Z,168.92
2023-07-22T06:10:19.137Z,173.45
2023-07-22T06:11:19.196Z,170.81
2023-07-22T06:12:19.230Z,166.30
2023-07-22T06:13:19.335Z,166.18
2023-07-22T06:14:19.387Z,165.94
2023-07-22T06:15:19.480Z,169.85
2023-07-22T06:16:19.540Z,172.76
2023-07-22T06:17:19.589Z,172.90
2023-07-22T06:18:19.641Z,172.89
2023-07-22T06:19:19.728Z,175.15
2023-07-22T06:20:19.844Z,182.51
2023-07-22T06:21:19.848Z,192.81
2023-07-22T06:22:19.920Z,195.81
2023-07-22T06:23:19.994Z,195.54
2023-07-22T06:24:20.083Z,194.99
2023-07-22T06:25:20.139Z,206.40
2023-07-22T06:26:22.520Z,215.07
2023-07-22T06:27:20.255Z,221.55
2023-07-22T06:28:20.340Z,228.48
2023-07-22T06:29:20.378Z,232.07
2023-07-22T06:30:20.442Z,234.04
2023-07-22T06:31:20.622Z,233.55
2023-07-22T06:32:20.590Z,229.96
2023-07-22T06:33:20.640Z,225.97
2023-07-22T06:34:20.697Z,224.99
2023-07-22T06:35:20.760Z,226.98
2023-07-22T06:36:20.939Z,226.74
2023-07-22T06:37:20.909Z,227.82
2023-07-22T06:38:20.971Z,226.64
2023-07-22T06:39:21.059Z,225.68
2023-07-22T06:40:21.086Z,228.16
2023-07-22T06:41:21.139Z,226.82
2023-07-22T06:42:21.247Z,221.64
2023-07-22T06:43:21.274Z,215.39
2023-07-22T06:44:21.328Z,212.38
2023-07-22T06:45:21.397Z,209.42
2023-07-22T06:46:21.467Z,210.34
2023-07-22T06:47:21.551Z,207.90
2023-07-22T06:48:21.601Z,205.05
2023-07-22T06:49:21.675Z,206.94
2023-07-22T06:50:21.728Z,205.13
2023-07-22T06:51:21.806Z,205.67
2023-07-22T06:52:21.876Z,196.18
2023-07-22T06:53:21.953Z,191.97
2023-07-22T06:54:21.991Z,188.24
2023-07-22T06:55:22.067Z,180.03
2023-07-22T06:56:22.126Z,177.11
2023-07-22T06:57:22.214Z,177.17
2023-07-22T06:58:22.265Z,182.49
2023-07-22T06:59:22.354Z,183.66
2023-07-22T07:00:22.380Z,187.01
2023-07-22T07:01:22.455Z,186.63
2023-07-22T07:02:22.502Z,183.97
2023-07-22T07:03:22.551Z,181.18
2023-07-22T07:04:22.616Z,173.14
2023-07-22T07:05:22.654Z,170.51
2023-07-22T07:06:22.752Z,163.23
2023-07-22T07:07:22.758Z,150.93
2023-07-22T07:08:22.820Z,148.66
2023-07-22T07:09:22.866Z,143.27
2023-07-22T07:10:22.899Z,138.70
2023-07-22T07:11:22.976Z,124.33
2023-07-22T07:12:23.013Z,107.16
2023-07-22T07:13:23.068Z,102.98
2023-07-22T07:14:23.122Z,95.93
2023-07-22T07:15:23.185Z,97.50
2023-07-22T07:16:23.314Z,105.71
2023-07-22T07:17:23.338Z,109.37
2023-07-22T07:18:23.359Z,106.75
2023-07-22T07:19:23.421Z,93.55
2023-07-22T07:20:23.457Z,79.21
2023-07-22T07:21:23.532Z,74.60
2023-07-22T07:22:23.570Z,85.49
2023-07-22T07:23:23.626Z,87.79
2023-07-22T07:24:23.694Z,61.29
2023-07-22T07:25:23.714Z,40.97
2023-07-22T07:26:23.758Z,23.90
2023-07-22T07:27:23.812Z,25.23
2023-07-22T07:28:23.881Z,31.23
2023-07-22T07:29:44.831Z,31.60
2023-07-22T07:30:24.979Z,29.03
2023-07-22T07:31:24.140Z,28.20
2023-07-22T07:32:24.177Z,16.01
2023-07-22T07:33:24.169Z,17.59
2023-07-22T07:34:24.307Z,25.86
2023-07-22T07:35:24.299Z,25.00
2023-07-22T07:36:24.495Z,27.12
2023-07-22T07:37:24.437Z,31.44
2023-07-22T07:38:24.480Z,22.53
2023-07-22T07:39:24.571Z,15.62
2023-07-22T07:40:24.592Z,21.34
2023-07-22T07:41:24.656Z,30.35
2023-07-22T07:42:24.701Z,22.48
2023-07-22T07:43:24.788Z,24.60
2023-07-22T07:44:24.872Z,25.68
2023-07-22T07:45:24.968Z,26.43
2023-07-22T07:46:25.250Z,32.91
2023-07-22T07:47:25.246Z,34.21
2023-07-22T07:48:25.332Z,27.03
2023-07-22T07:49:25.485Z,28.25
2023-07-22T07:50:25.582Z,25.12
2023-07-22T07:51:25.652Z,27.09
2023-07-22T07:52:25.754Z,32.96
2023-07-22T07:53:25.917Z,25.00
2023-07-22T07:54:25.934Z,11.56
2023-07-22T07:55:26.022Z,11.13
2023-07-22T07:56:26.442Z,12.50
2023-07-22T07:57:26.252Z,15.09
2023-07-22T07:58:26.276Z,16.82
2023-07-22T07:59:26.399Z,25.05
2023-07-22T08:00:26.447Z,24.65
2023-07-22T08:01:26.547Z,25.93
2023-07-22T08:02:26.675Z,25.27
2023-07-22T08:03:26.852Z,26.08
2023-07-22T08:04:26.909Z,18.55
2023-07-22T08:05:27.076Z,26.06
2023-07-22T08:06:27.342Z,28.30
2023-07-22T08:07:27.339Z,27.81
2023-07-22T08:08:27.351Z,29.51
2023-07-22T08:09:27.484Z,35.60
2023-07-22T08:10:27.559Z,39.98
2023-07-22T08:11:27.661Z,37.73
2023-07-22T08:12:27.795Z,40.53
2023-07-22T08:13:27.946Z,41.91
2023-07-22T08:14:27.998Z,38.05
2023-07-22T08:15:28.128Z,30.90
2023-07-22T08:16:28.453Z,26.78
2023-07-22T08:17:28.374Z,25.00
2023-07-22T08:18:31.174Z,25.16
2023-07-22T08:19:28.524Z,28.15
2023-07-22T08:20:28.632Z,28.31
2023-07-22T08:21:28.664Z,34.29
2023-07-22T08:22:28.717Z,34.28
2023-07-22T08:23:28.768Z,39.14
2023-07-22T08:24:28.846Z,36.45
2023-07-22T08:25:28.935Z,26.47
2023-07-22T08:26:29.131Z,32.80
2023-07-22T08:27:29.008Z,38.93
2023-07-22T08:28:29.121Z,38.00
2023-07-22T08:29:29.141Z,36.09
2023-07-22T08:30:29.219Z,37.60
2023-07-22T08:31:29.330Z,34.41
2023-07-22T08:32:29.351Z,32.26
2023-07-22T08:33:39.716Z,40.19
2023-07-22T08:34:30.422Z,30.20
2023-07-22T08:35:29.469Z,22.20
2023-07-22T08:36:29.748Z,23.44
2023-07-22T08:37:29.556Z,35.63
2023-07-22T08:38:29.624Z,39.01
2023-07-22T08:39:29.652Z,31.38
2023-07-22T08:40:29.730Z,20.12
2023-07-22T08:41:29.789Z,24.89
2023-07-22T08:42:29.858Z,32.37
2023-07-22T08:43:30.019Z,31.69
2023-07-22T08:44:29.983Z,21.16
2023-07-22T08:45:30.092Z,17.82
2023-07-22T08:46:30.230Z,18.61
2023-07-22T08:47:30.168Z,26.94
2023-07-22T08:48:30.242Z,28.51
2023-07-22T08:49:30.244Z,30.34
2023-07-22T08:50:30.353Z,36.32
2023-07-22T08:51:30.439Z,20.06
2023-07-22T08:52:30.497Z,20.25
2023-07-22T08:53:30.600Z,21.04
2023-07-22T08:54:30.732Z,20.13
2023-07-22T08:55:30.740Z,26.59
2023-07-22T08:56:30.844Z,36.93
2023-07-22T08:57:31.363Z,38.07
2023-07-22T08:58:31.022Z,34.35
2023-07-22T08:59:31.035Z,37.32
2023-07-22T09:00:31.152Z,31.80
2023-07-22T09:01:31.366Z,27.94
2023-07-22T09:02:31.340Z,33.68
2023-07-22T09:03:31.397Z,32.09
2023-07-22T09:04:31.486Z,24.19
2023-07-22T09:05:31.558Z,25.55
2023-07-22T09:06:31.595Z,23.15
2023-07-22T09:07:31.637Z,24.23
2023-07-22T09:08:31.694Z,22.41
2023-07-22T09:09:31.729Z,28.74
2023-07-22T09:10:31.835Z,34.28
2023-07-22T09:11:31.872Z,33.46
2023-07-22T09:12:31.908Z,31.61
2023-07-22T09:13:31.961Z,33.24
2023-07-22T09:14:36.761Z,35.04
2023-07-22T09:15:33.154Z,28.21
2023-07-22T09:16:32.957Z,22.28
2023-07-22T09:17:32.229Z,18.88
2023-07-22T09:18:33.082Z,12.87
2023-07-22T09:19:32.312Z,26.18
2023-07-22T09:20:32.343Z,27.64
2023-07-22T09:21:32.365Z,40.95
2023-07-22T09:22:32.457Z,33.56
2023-07-22T09:23:32.443Z,31.07
2023-07-22T09:24:32.540Z,25.82
2023-07-22T09:25:32.570Z,27.68
2023-07-22T09:26:32.586Z,32.08
2023-07-22T09:27:32.929Z,24.97
2023-07-22T09:28:32.692Z,24.36
2023-07-22T09:29:32.723Z,22.17
2023-07-22T09:30:32.815Z,21.88
2023-07-22T09:31:32.951Z,22.83
2023-07-22T09:32:32.994Z,28.82
2023-07-22T09:33:33.009Z,24.17
2023-07-22T09:34:33.148Z,29.07
2023-07-22T09:35:33.179Z,26.66
2023-07-22T09:36:33.268Z,34.48
2023-07-22T09:37:33.339Z,35.22
2023-07-22T09:38:33.427Z,33.86
2023-07-22T09:39:33.495Z,32.12
2023-07-22T09:40:33.563Z,32.77
2023-07-22T09:41:33.667Z,35.41
2023-07-22T09:42:33.702Z,31.81
2023-07-22T09:43:33.784Z,41.08
2023-07-22T09:44:34.106Z,51.64
2023-07-22T09:45:33.949Z,50.90
2023-07-22T09:46:34.275Z,40.21
2023-07-22T09:47:34.358Z,36.00
2023-07-22T09:48:34.395Z,33.68
2023-07-22T09:49:34.336Z,33.68
2023-07-22T09:50:34.433Z,35.95
2023-07-22T09:51:35.219Z,27.31
2023-07-22T09:52:34.577Z,26.61
2023-07-22T09:53:34.751Z,29.99
2023-07-22T09:54:34.794Z,25.73
2023-07-22T09:55:34.899Z,29.44
2023-07-22T09:56:34.956Z,23.58
2023-07-22T09:57:35.032Z,22.26
2023-07-22T09:58:35.111Z,23.47
2023-07-22T09:59:35.177Z,22.60
2023-07-22T10:00:35.238Z,26.88
2023-07-22T10:01:35.308Z,31.57
2023-07-22T10:02:35.434Z,36.94
2023-07-22T10:03:35.478Z,45.72
2023-07-22T10:04:35.611Z,44.45
2023-07-22T10:05:35.715Z,39.63
2023-07-22T10:06:35.764Z,41.70
2023-07-22T10:07:35.853Z,44.01
2023-07-22T10:08:37.076Z,41.81
2023-07-22T10:09:36.035Z,44.74
2023-07-22T10:10:36.164Z,41.06
2023-07-22T10:11:36.156Z,44.49
2023-07-22T10:12:36.224Z,45.04
2023-07-22T10:13:36.294Z,47.11
2023-07-22T10:14:38.180Z,44.53
2023-07-22T10:15:36.454Z,44.66
2023-07-22T10:16:36.601Z,44.93
2023-07-22T10:17:36.604Z,46.37
2023-07-22T10:18:36.694Z,48.80
2023-07-22T10:19:36.782Z,50.87
2023-07-22T10:20:36.908Z,55.32
2023-07-22T10:21:37.029Z,57.86
2023-07-22T10:22:37.197Z,57.32
2023-07-22T10:23:37.316Z,60.02
2023-07-22T10:24:37.508Z,63.18
2023-07-22T10:25:37.614Z,68.68
2023-07-22T10:27:37.846Z,71.09
2023-07-22T10:28:37.918Z,75.14
2023-07-22T10:29:38.051Z,79.56
2023-07-22T10:30:38.182Z,83.35
2023-07-22T10:31:38.271Z,87.29
2023-07-22T10:32:39.490Z,95.28
2023-07-22T10:33:38.428Z,95.45
2023-07-22T10:34:38.536Z,96.61
2023-07-22T10:35:38.607Z,98.27
2023-07-22T10:36:38.725Z,104.70
2023-07-22T10:37:38.876Z,118.08
2023-07-22T10:38:38.925Z,117.60
2023-07-22T10:39:39.092Z,119.52
2023-07-22T10:40:39.361Z,125.02
2023-07-22T10:41:39.454Z,129.76
2023-07-22T10:42:39.550Z,134.13
2023-07-22T10:43:39.689Z,132.70
2023-07-22T10:44:39.883Z,138.04
2023-07-22T10:45:39.983Z,138.57
2023-07-22T10:46:40.229Z,141.69
2023-07-22T10:47:40.301Z,144.69
2023-07-22T10:48:40.445Z,141.42
2023-07-22T10:49:40.568Z,139.25
2023-07-22T10:50:43.568Z,143.80
2023-07-22T10:51:40.857Z,129.49
2023-07-22T10:52:40.923Z,124.29
2023-07-22T10:53:41.048Z,111.64
2023-07-22T10:54:41.166Z,115.78
2023-07-22T10:55:41.245Z,123.33
2023-07-22T10:56:41.390Z,125.43
2023-07-22T10:57:41.472Z,125.98
2023-07-22T10:58:41.612Z,127.01
2023-07-22T10:59:41.661Z,127.53
2023-07-22T11:00:41.750Z,131.97
2023-07-22T11:01:41.864Z,133.49
2023-07-22T11:02:41.889Z,132.15
2023-07-22T11:03:41.897Z,129.14
2023-07-22T11:04:55.715Z,124.00
2023-07-22T11:05:42.014Z,117.48
2023-07-22T11:06:42.058Z,109.73
2023-07-22T11:07:42.095Z,109.48
2023-07-22T11:08:42.158Z,109.82
2023-07-22T11:09:42.213Z,113.73
2023-07-22T11:10:42.333Z,121.81
2023-07-22T11:11:42.311Z,126.01
2023-07-22T11:12:42.362Z,128.23
2023-07-22T11:13:42.669Z,129.90
2023-07-22T11:14:42.505Z,134.20
2023-07-22T11:15:42.494Z,141.76
2023-07-22T11:16:42.569Z,147.86
2023-07-22T11:17:42.573Z,151.27
2023-07-22T11:18:42.672Z,149.71
2023-07-22T11:19:42.622Z,147.22
2023-07-22T11:20:42.729Z,146.21
2023-07-22T11:21:42.791Z,142.32
2023-07-22T11:22:42.950Z,137.58
2023-07-22T11:23:42.992Z,133.37
2023-07-22T11:24:43.136Z,138.31
2023-07-22T11:25:43.124Z,141.80
2023-07-22T11:26:46.358Z,146.51
2023-07-22T11:27:43.178Z,149.50
2023-07-22T11:28:43.231Z,130.78
2023-07-22T11:29:43.242Z,131.89
2023-07-22T11:30:43.287Z,138.83
2023-07-22T11:31:43.309Z,145.12
2023-07-22T11:32:43.314Z,149.04
2023-07-22T11:33:43.295Z,156.31
2023-07-22T11:34:43.339Z,158.77
2023-07-22T11:35:43.353Z,152.74
2023-07-22T11:36:43.369Z,150.97
2023-07-22T11:37:43.413Z,152.81
2023-07-22T11:38:43.443Z,152.90
2023-07-22T11:39:43.440Z,149.45
2023-07-22T11:40:43.519Z,142.52
2023-07-22T11:41:43.535Z,131.18
2023-07-22T11:42:43.538Z,131.58
2023-07-22T11:43:43.563Z,129.87
2023-07-22T11:44:43.609Z,128.98
2023-07-22T11:45:43.684Z,130.75
2023-07-22T11:46:43.656Z,133.12
2023-07-22T11:47:43.733Z,135.00
2023-07-22T11:48:43.712Z,142.34
2023-07-22T11:49:43.725Z,149.88
2023-07-22T11:50:43.814Z,134.11
2023-07-22T11:51:43.828Z,122.64
2023-07-22T11:52:43.839Z,136.17
2023-07-22T11:53:43.877Z,135.81
2023-07-22T11:54:43.911Z,128.06
2023-07-22T11:55:43.928Z,112.68
2023-07-22T11:56:44.007Z,102.22
2023-07-22T11:57:44.014Z,100.34
2023-07-22T11:58:44.104Z,87.16
2023-07-22T11:59:44.197Z,79.79
2023-07-22T12:00:52.925Z,82.98
2023-07-22T12:01:45.244Z,83.27
2023-07-22T12:02:44.319Z,84.84
2023-07-22T12:03:44.303Z,85.60
2023-07-22T12:04:44.241Z,84.40
2023-07-22T12:05:44.241Z,82.42
2023-07-22T12:06:44.255Z,67.40
2023-07-22T12:07:44.235Z,62.53
2023-07-22T12:08:44.331Z,61.93
2023-07-22T12:09:44.237Z,59.76
2023-07-22T12:10:44.223Z,65.70
2023-07-22T12:11:44.224Z,73.61
2023-07-22T12:12:44.268Z,84.25
2023-07-22T12:13:44.239Z,95.00
2023-07-22T12:14:44.248Z,98.38
2023-07-22T12:15:44.239Z,87.97
2023-07-22T12:16:44.314Z,83.19
2023-07-22T12:17:44.264Z,80.92
2023-07-22T12:18:44.282Z,80.03
2023-07-22T12:19:44.238Z,81.62
2023-07-22T12:20:44.220Z,86.53
2023-07-22T12:21:44.260Z,89.20
2023-07-22T12:22:44.299Z,78.59
2023-07-22T12:23:44.289Z,67.36
2023-07-22T12:24:44.363Z,60.13
2023-07-22T12:25:44.334Z,63.76
2023-07-22T12:26:44.433Z,67.35
2023-07-22T12:27:44.453Z,76.44
2023-07-22T12:28:44.499Z,87.63
2023-07-22T12:29:44.534Z,91.34
2023-07-22T12:30:44.534Z,91.94
2023-07-22T12:31:44.618Z,89.48
2023-07-22T12:32:44.646Z,87.41
2023-07-22T12:33:44.689Z,94.13
2023-07-22T12:34:44.715Z,104.59
2023-07-22T12:35:44.747Z,108.71
2023-07-22T12:36:44.789Z,114.73
2023-07-22T12:37:44.817Z,105.72